Mobile, Arizona
Current Conditions -  °F | °C
As of 11:35 AM on Saturday 25 Oct 2014 (Local Time) from KCGZ Reporting Station
Few Clouds Few Clouds  
Wind Chill: 88°   Ceiling: Unl
Heat Index: 88°   Visibility: 10mi
Dew Point: 48°   Wind: 0mph
Humidity: 25%   Direction: NA
Pressure: 30.03"   Gusts: NA
Location:  32.9044°N, 112.146°W
Report Text: KCGZ 251835Z AUTO 00000KT 10SM FEW110 31/09 A3003 RMK AO1
Loading
Personal Weather Stations






























Interactive Weather Map New forecast layout! Learn more

10-Day Weather Forecast

Advertisements
Track Severe Weather on mobile